Flight Number: EUR1159 Duration: 1:15
Departure: Helsinki Vantaa (EFHK) at 18:30 Distance: 414 Nm
Arrival: Gdansk Zechowo (EPGD) at 19:45 Equipment: A321

Weather Information
404 Not Found

Not Found

The requested URL /data/observations/metar/decoded/EFHK.TXT was not found on this server.


Sunrise: 01:29 Sunset: 19:04 (UTC)

Gdansk-Rebiechowo, Poland (EPGD) 54-23N 018-28E 138M May 22, 2018 - 03:30 PM EDT / 2018.05.22 1930 UTC
Wind: Variable at 2 MPH (2 KT):0
Visibility: greater than 7 mile(s):0 Temperature: 51 F (11 C) Dew Point: 48 F (9 C) Relative Humidity: 87% Pressure (altimeter): 30.06 in. Hg (1018 hPa)
ob: EPGD 221930Z VRB02KT CAVOK 11/09 Q1018 cycle: 19
Sunrise: 02:34 Sunset: 18:51 (UTC)

TAF:2018/05/22 18:33 TAF TAF EPGD 221730Z 2218/2318 VRB03KT CAVOK PROB40 2223/2305 4000 BR BECMG 2308/2310 02010KT

Previous Pireps for this route
Date Aircraft Flight time Fuel used Landing rate On time
2012-11-30A32101.419740-401Yes
2013-08-17A32101.4611774-324No
2015-04-08A3211.1597000No
(pireps marked green are flown by you)

Route map